Time;durP1;ratioP1;P1;durP2;ratioP2;P2;SDS_P1;SDS_P2;PMS_P1;PMS_P2;Temp;Humidity;BMP_temperature;BMP_pressure;BME280_temperature;BME280_humidity;BME280_pressure;Samples;Min_cycle;Max_cycle;Signal;HPM_P1;HPM_P2
2022/01/11 00:01:41;;;;;;;;;16.75;13.25;;;;;6.03;92.41;102170.94;5076127;28;45594;-77
2022/01/11 00:04:07;;;;;;;;;16.25;12.25;;;;;6.06;92.45;102174.31;5058457;28;45736;-77
2022/01/11 00:06:40;;;;;;;;;19.25;16.50;;;;;6.09;92.64;102178.59;5076430;28;47292;-76
2022/01/11 00:09:18;;;;;;;;;13.25;12.25;;;;;6.09;92.77;102175.97;5076494;28;46647;-77
2022/01/11 00:11:43;;;;;;;;;17.75;13.00;;;;;6.05;92.63;102163.94;5076354;28;45915;-78
2022/01/11 00:14:08;;;;;;;;;18.75;15.50;;;;;6.02;92.59;102164.03;5076778;28;45593;-78
2022/01/11 00:16:34;;;;;;;;;15.25;13.00;;;;;6.09;92.39;102173.38;5076595;28;46385;-77
2022/01/11 00:19:05;;;;;;;;;17.75;15.25;;;;;6.07;92.46;102177.75;5076302;28;45660;-78
2022/01/11 00:21:30;;;;;;;;;18.25;14.25;;;;;6.07;92.62;102178.63;5076488;28;45943;-76
2022/01/11 00:26:40;;;;;;;;;17.25;15.25;;;;;6.07;92.80;102186.44;5075982;28;45608;-78
2022/01/11 00:29:05;;;;;;;;;16.50;16.00;;;;;6.06;92.49;102178.66;5075967;28;46381;-76
2022/01/11 00:31:31;;;;;;;;;22.00;17.25;;;;;5.97;92.81;102168.50;5076113;28;45689;-76
2022/01/11 00:33:56;;;;;;;;;19.50;13.00;;;;;6.05;92.33;102182.16;5076181;28;45612;-77
2022/01/11 00:36:29;;;;;;;;;22.00;17.25;;;;;6.04;92.65;102176.13;5076173;28;47313;-77
2022/01/11 00:38:54;;;;;;;;;20.50;19.50;;;;;6.03;92.64;102166.59;5076490;28;46067;-78
2022/01/11 00:44:43;;;;;;;;;21.00;20.00;;;;;6.02;92.57;102177.03;5074777;28;45687;-77
2022/01/11 00:47:10;;;;;;;;;42.50;31.50;;;;;6.00;92.33;102178.81;5076253;28;47474;-78
2022/01/11 00:49:38;;;;;;;;;42.25;31.25;;;;;5.93;92.57;102177.28;5075728;28;47322;-78
2022/01/11 00:52:04;;;;;;;;;36.50;27.50;;;;;5.96;92.52;102183.25;5075014;28;45596;-78
2022/01/11 00:54:29;;;;;;;;;32.50;27.25;;;;;5.98;92.61;102185.81;5076418;28;45593;-77
2022/01/11 00:56:55;;;;;;;;;25.00;19.50;;;;;6.00;92.33;102181.41;5075841;28;45634;-78
2022/01/11 00:59:20;;;;;;;;;37.00;27.50;;;;;5.99;92.44;102182.34;5057582;28;46681;-76
2022/01/11 01:01:45;;;;;;;;;33.75;28.75;;;;;5.98;92.52;102178.88;5076086;28;45644;-78
2022/01/11 01:04:11;;;;;;;;;33.50;25.75;;;;;5.95;92.55;102180.69;5076100;28;45800;-78
2022/01/11 01:06:39;;;;;;;;;33.75;24.00;;;;;5.93;92.25;102183.34;5057475;28;46565;-78
2022/01/11 01:09:07;;;;;;;;;28.25;25.25;;;;;5.89;92.62;102192.97;5075321;28;46224;-76
2022/01/11 01:14:54;;;;;;;;;23.00;19.75;;;;;5.74;92.58;102161.28;5075666;28;45576;-77
2022/01/11 01:17:20;;;;;;;;;16.25;10.50;;;;;5.84;92.29;102199.13;5057182;28;47079;-79
2022/01/11 01:19:45;;;;;;;;;27.50;16.50;;;;;5.82;92.17;102209.59;5075653;28;46804;-77
2022/01/11 01:22:11;;;;;;;;;19.75;17.00;;;;;5.82;92.20;102208.75;5075569;28;45405;-78
2022/01/11 01:24:36;;;;;;;;;20.50;17.00;;;;;5.79;92.26;102203.59;5076083;28;45905;-77
2022/01/11 01:27:02;;;;;;;;;15.50;13.50;;;;;5.77;92.59;102208.88;5075126;28;47262;-77
2022/01/11 01:29:27;;;;;;;;;18.75;16.00;;;;;5.71;92.24;102187.38;5075410;28;45718;-77
2022/01/11 01:31:53;;;;;;;;;14.00;12.00;;;;;5.73;92.40;102198.56;5057007;28;46068;-77
2022/01/11 01:34:19;;;;;;;;;24.75;18.75;;;;;5.71;91.98;102196.03;5074649;28;45601;-77
2022/01/11 01:36:44;;;;;;;;;17.75;16.75;;;;;5.76;92.21;102196.75;5075341;28;46603;-78
2022/01/11 01:39:10;;;;;;;;;19.75;18.00;;;;;5.72;92.64;102195.09;5075286;28;47180;-77
2022/01/11 01:45:03;;;;;;;;;17.25;15.00;;;;;5.76;92.19;102198.50;5075336;28;45689;-78
2022/01/11 01:47:28;;;;;;;;;18.75;16.75;;;;;5.80;92.14;102207.91;5075184;28;46618;-76
2022/01/11 01:49:54;;;;;;;;;16.00;15.00;;;;;5.77;92.10;102206.28;5075230;28;45513;-76
2022/01/11 01:52:20;;;;;;;;;20.50;17.25;;;;;5.82;92.25;102206.16;5076083;28;45542;-78
2022/01/11 01:54:46;;;;;;;;;19.25;15.25;;;;;5.83;92.33;102213.88;5075349;28;45669;-78
2022/01/11 02:00:40;;;;;;;;;18.25;15.00;;;;;5.83;92.00;102215.66;5074925;28;46012;-77
2022/01/11 02:03:12;;;;;;;;;21.00;15.50;;;;;5.83;92.42;102221.69;5075128;28;45565;-78
2022/01/11 02:05:39;;;;;;;;;14.25;13.50;;;;;5.82;92.20;102217.41;5075406;28;45870;-78
2022/01/11 02:08:06;;;;;;;;;20.00;17.00;;;;;5.84;92.25;102225.16;5074560;28;46566;-77
2022/01/11 02:10:32;;;;;;;;;21.50;19.00;;;;;5.84;92.40;102233.81;5075379;28;46271;-77
2022/01/11 02:13:00;;;;;;;;;19.00;18.00;;;;;5.85;92.49;102232.91;5075049;28;45781;-78
2022/01/11 02:15:26;;;;;;;;;25.75;20.75;;;;;5.86;91.98;102237.22;5075256;28;45546;-77
2022/01/11 02:17:52;;;;;;;;;20.00;15.50;;;;;5.86;92.05;102228.56;5074851;28;46623;-78
2022/01/11 02:20:17;;;;;;;;;20.75;19.00;;;;;5.87;92.07;102235.53;5074693;28;46135;-78
2022/01/11 02:22:43;;;;;;;;;27.75;20.75;;;;;5.81;92.10;102223.50;5074308;28;45688;-78
2022/01/11 02:25:09;;;;;;;;;23.75;20.00;;;;;5.79;92.30;102224.41;5074586;28;45577;-79
2022/01/11 02:30:58;;;;;;;;;26.25;17.00;;;;;5.84;92.45;102232.94;5074107;28;46060;-78
2022/01/11 02:33:33;;;;;;;;;27.25;23.50;;;;;5.79;92.04;102230.47;5056666;28;45783;-78
2022/01/11 02:36:06;;;;;;;;;24.75;20.00;;;;;5.81;92.30;102238.25;5074552;28;45953;-77
2022/01/11 02:38:32;;;;;;;;;25.75;21.00;;;;;5.75;92.46;102233.19;5073998;28;46633;-77
2022/01/11 02:40:58;;;;;;;;;20.50;18.00;;;;;5.84;92.27;102246.81;5073587;28;46397;-78
2022/01/11 02:43:25;;;;;;;;;26.50;20.25;;;;;5.83;91.74;102244.28;5073596;28;45855;-77
2022/01/11 02:45:52;;;;;;;;;27.50;20.00;;;;;5.82;92.06;102248.63;5073723;28;45675;-77
2022/01/11 02:48:18;;;;;;;;;17.50;14.50;;;;;5.81;92.09;102241.69;5073983;28;46642;-77
2022/01/11 02:50:45;;;;;;;;;27.25;22.75;;;;;5.79;92.22;102248.66;5073923;28;46543;-79
2022/01/11 02:53:11;;;;;;;;;24.00;22.25;;;;;5.77;92.07;102244.41;5073892;28;45889;-78
2022/01/11 02:55:37;;;;;;;;;26.75;21.75;;;;;5.74;92.23;102241.88;5073964;28;45694;-77
2022/01/11 03:01:25;;;;;;;;;20.00;19.50;;;;;5.73;92.13;102237.56;5073514;28;46104;-78
2022/01/11 03:03:51;;;;;;;;;21.75;19.00;;;;;5.74;92.04;102245.34;5074210;28;45525;-76
2022/01/11 03:06:17;;;;;;;;;30.25;21.50;;;;;5.74;91.90;102242.72;5073989;28;45517;-76
2022/01/11 03:08:49;;;;;;;;;24.00;20.25;;;;;5.70;92.04;102246.31;5073879;28;45793;-78
2022/01/11 03:11:18;;;;;;;;;20.00;17.25;;;;;5.70;92.02;102248.91;5075004;28;47249;-77
2022/01/11 03:13:46;;;;;;;;;31.00;22.25;;;;;5.68;92.02;102240.28;5077433;28;45787;-78
2022/01/11 03:16:12;;;;;;;;;26.00;19.00;;;;;5.72;92.31;102244.50;5077355;28;45519;-77
2022/01/11 03:18:40;;;;;;;;;20.25;19.50;;;;;5.65;91.85;102242.97;5077038;28;46322;-78
2022/01/11 03:21:06;;;;;;;;;27.00;21.00;;;;;5.68;91.93;102255.88;5077126;28;46209;-75
2022/01/11 03:23:32;;;;;;;;;23.50;20.00;;;;;5.67;92.12;102254.16;5077021;28;45872;-77
2022/01/11 03:32:42;;;;;;;;;22.25;17.25;;;;;5.57;91.64;102257.88;5077638;28;45557;-78
2022/01/11 03:35:09;;;;;;;;;22.50;19.50;;;;;5.58;92.03;102270.00;5076970;28;45747;-77
2022/01/11 03:37:35;;;;;;;;;19.25;16.50;;;;;5.57;92.26;102272.63;5077019;28;45727;-78
2022/01/11 03:40:01;;;;;;;;;18.50;15.50;;;;;5.55;91.55;102261.44;5077838;28;45907;-77
2022/01/11 03:42:26;;;;;;;;;20.50;18.75;;;;;5.57;92.06;102272.63;5076915;28;46014;-76
2022/01/11 03:44:54;;;;;;;;;19.25;16.00;;;;;5.52;92.07;102254.53;5077630;28;45697;-78
2022/01/11 03:47:20;;;;;;;;;20.75;19.75;;;;;5.55;92.23;102256.22;5077701;28;45795;-76
2022/01/11 03:49:46;;;;;;;;;28.00;19.25;;;;;5.56;91.94;102263.97;5077327;28;46298;-77
2022/01/11 03:52:11;;;;;;;;;21.50;18.75;;;;;5.55;92.12;102269.22;5077153;28;47017;-77
2022/01/11 03:57:16;;;;;;;;;22.50;17.50;;;;;5.42;91.92;102266.03;5076492;28;45547;-78
2022/01/11 03:59:41;;;;;;;;;24.75;21.00;;;;;5.47;91.52;102282.38;5076319;28;46335;-79
2022/01/11 04:02:07;;;;;;;;;20.75;19.25;;;;;5.39;91.83;102279.13;5076266;28;45934;-78
2022/01/11 04:04:32;;;;;;;;;30.00;17.25;;;;;5.40;91.93;102284.25;5076537;28;45615;-77
2022/01/11 04:07:00;;;;;;;;;21.75;18.25;;;;;5.38;92.07;102278.25;5076672;28;45641;-78
2022/01/11 04:09:25;;;;;;;;;25.25;22.75;;;;;5.28;91.46;102255.97;5076118;28;47294;-77
2022/01/11 04:11:51;;;;;;;;;26.00;16.25;;;;;5.30;91.92;102261.97;5076699;28;45612;-77
2022/01/11 04:14:16;;;;;;;;;12.50;10.00;;;;;5.29;91.62;102268.06;5076187;28;46062;-78
2022/01/11 04:16:42;;;;;;;;;18.00;15.00;;;;;5.26;91.97;102270.75;5077055;28;45667;-77
2022/01/11 04:19:07;;;;;;;;;20.75;17.50;;;;;5.26;91.74;102272.47;5076739;28;46526;-77
2022/01/11 04:21:33;;;;;;;;;17.50;15.50;;;;;5.20;91.62;102272.59;5076134;28;46921;-78
2022/01/11 04:23:58;;;;;;;;;23.75;16.00;;;;;5.22;92.14;102263.91;5076618;28;45836;-78
2022/01/11 04:26:24;;;;;;;;;19.50;13.50;;;;;5.12;91.60;102239.03;5058095;28;45514;-77
2022/01/11 04:32:11;;;;;;;;;25.50;19.50;;;;;5.19;91.44;102282.16;5076267;28;46230;-77
2022/01/11 04:34:37;;;;;;;;;16.75;15.00;;;;;5.18;91.61;102284.81;5076763;28;45553;-77
2022/01/11 04:37:03;;;;;;;;;23.75;17.00;;;;;5.14;91.80;102280.53;5075842;28;45497;-78
2022/01/11 04:39:29;;;;;;;;;20.25;15.00;;;;;5.05;91.96;102261.69;5076867;28;47463;-77
2022/01/11 04:41:54;;;;;;;;;21.25;15.00;;;;;5.11;91.50;102259.84;5058173;28;45668;-77
2022/01/11 04:44:19;;;;;;;;;23.00;19.50;;;;;5.11;92.08;102265.03;5057961;28;45568;-76
2022/01/11 04:46:45;;;;;;;;;26.25;18.00;;;;;5.05;91.47;102253.03;5075972;28;45463;-78
2022/01/11 04:49:10;;;;;;;;;24.50;19.00;;;;;5.12;91.74;102277.13;5076304;28;47270;-77
2022/01/11 04:51:36;;;;;;;;;19.75;18.00;;;;;4.97;91.83;102257.50;5076414;28;46140;-76
2022/01/11 04:54:03;;;;;;;;;20.00;18.00;;;;;5.07;91.70;102277.25;5075863;28;45526;-78
2022/01/11 04:56:28;;;;;;;;;24.50;20.25;;;;;5.11;91.44;102280.63;5075790;28;45798;-78
2022/01/11 05:02:15;;;;;;;;;16.75;15.25;;;;;5.13;91.75;102302.22;5075915;28;46145;-77
2022/01/11 05:04:41;;;;;;;;;26.25;19.00;;;;;5.10;91.50;102305.72;5075552;28;45624;-77
2022/01/11 05:07:07;;;;;;;;;24.25;19.50;;;;;5.00;91.88;102286.91;5074851;28;45559;-77
2022/01/11 05:09:32;;;;;;;;;21.25;16.50;;;;;5.17;91.72;102312.50;5076070;28;45486;-77
2022/01/11 05:11:58;;;;;;;;;35.00;23.75;;;;;5.15;91.68;102316.03;5076166;28;46336;-77
2022/01/11 05:17:45;;;;;;;;;28.75;25.00;;;;;5.15;91.37;102308.22;5076358;28;45455;-77
2022/01/11 05:20:11;;;;;;;;;20.00;18.00;;;;;5.15;91.92;102305.63;5075884;28;46480;-77
2022/01/11 05:22:38;;;;;;;;;26.25;21.75;;;;;5.17;91.12;102298.66;5075008;28;47273;-77
2022/01/11 05:25:05;;;;;;;;;30.50;20.00;;;;;5.10;91.72;102277.16;5075801;28;45565;-78
2022/01/11 05:27:32;;;;;;;;;23.25;20.00;;;;;5.16;91.77;102305.59;5075948;28;45734;-78
2022/01/11 05:29:57;;;;;;;;;27.75;22.50;;;;;5.12;91.73;102305.72;5075760;28;47553;-77
2022/01/11 05:32:23;;;;;;;;;25.75;23.00;;;;;5.15;91.44;102311.69;5076117;28;45689;-76
2022/01/11 05:34:49;;;;;;;;;22.50;20.25;;;;;5.11;91.72;102312.63;5074164;28;45764;-78
2022/01/11 05:37:14;;;;;;;;;26.00;19.75;;;;;5.14;91.58;102320.34;5075520;28;45530;-78
2022/01/11 05:39:39;;;;;;;;;28.00;20.25;;;;;5.13;91.44;102308.25;5075429;28;46243;-79
2022/01/11 05:42:07;;;;;;;;;30.25;20.25;;;;;5.12;91.12;102309.16;5075712;28;46169;-76
2022/01/11 05:48:34;;;;;;;;;23.00;21.00;;;;;5.18;91.56;102314.22;5074082;28;45736;-77
2022/01/11 05:51:00;;;;;;;;;26.75;22.25;;;;;5.14;91.40;102332.47;5074535;28;47304;-78
2022/01/11 05:53:26;;;;;;;;;26.75;21.50;;;;;5.14;91.46;102332.47;5074726;28;46322;-78
2022/01/11 05:55:51;;;;;;;;;23.50;20.00;;;;;5.15;91.52;102340.25;5074560;28;45521;-77
2022/01/11 05:58:18;;;;;;;;;29.25;24.50;;;;;5.15;91.66;102336.81;5074026;28;45603;-76
2022/01/11 06:00:44;;;;;;;;;26.75;21.25;;;;;5.13;91.53;102336.81;5072423;28;45760;-76
2022/01/11 06:03:09;;;;;;;;;27.75;24.50;;;;;5.14;91.34;102335.09;5074342;28;47023;-78
2022/01/11 06:05:38;;;;;;;;;28.50;22.75;;;;;5.13;91.58;102341.19;5074444;28;45784;-78
2022/01/11 06:08:05;;;;;;;;;29.25;23.25;;;;;5.13;91.70;102349.81;5074196;28;45498;-77
2022/01/11 06:10:31;;;;;;;;;31.75;22.75;;;;;5.11;91.28;102345.56;5074163;28;46590;-77
2022/01/11 06:12:57;;;;;;;;;26.00;22.25;;;;;5.07;91.25;102353.38;5074191;28;47364;-78
2022/01/11 06:18:45;;;;;;;;;23.25;21.75;;;;;4.99;91.43;102351.84;5074413;28;45697;-78
2022/01/11 06:21:11;;;;;;;;;25.25;17.25;;;;;4.97;91.16;102364.84;5074232;28;46508;-80
2022/01/11 06:23:36;;;;;;;;;29.25;27.00;;;;;4.94;91.35;102359.72;5074019;28;46257;-77
2022/01/11 06:26:02;;;;;;;;;29.00;22.75;;;;;5.00;91.52;102370.00;5074406;28;45517;-78
2022/01/11 06:28:28;;;;;;;;;26.00;24.75;;;;;4.96;91.60;102370.97;5074684;28;45834;-78
2022/01/11 06:30:53;;;;;;;;;27.25;23.00;;;;;4.97;91.20;102372.66;5074069;28;45739;-79
2022/01/11 06:33:18;;;;;;;;;22.25;18.75;;;;;4.93;91.44;102367.53;5073786;28;46708;-77
2022/01/11 06:35:44;;;;;;;;;28.50;21.25;;;;;4.79;91.09;102354.84;5073077;28;45659;-77
2022/01/11 06:38:11;;;;;;;;;27.50;22.25;;;;;4.92;91.11;102371.03;5073780;28;45799;-75
2022/01/11 06:40:36;;;;;;;;;31.25;22.50;;;;;4.91;91.44;102377.13;5073455;28;46385;-78
2022/01/11 06:43:02;;;;;;;;;27.25;21.75;;;;;4.79;91.67;102353.97;5073905;28;45968;-77
2022/01/11 06:48:53;;;;;;;;;30.25;22.00;;;;;4.82;91.02;102366.88;5075955;28;45719;-76
2022/01/11 06:51:19;;;;;;;;;31.50;24.00;;;;;4.70;91.03;102355.00;5077314;28;46697;-78
2022/01/11 06:53:45;;;;;;;;;26.00;24.00;;;;;4.61;91.30;102347.38;5076159;28;48182;-78
2022/01/11 06:56:11;;;;;;;;;25.75;22.00;;;;;4.69;90.99;102362.84;5077733;28;45898;-78
2022/01/11 06:58:38;;;;;;;;;37.00;30.00;;;;;4.64;91.54;102366.34;5077103;28;45438;-78
2022/01/11 07:01:06;;;;;;;;;30.50;25.50;;;;;4.69;91.26;102371.47;5077253;28;47332;-78
2022/01/11 07:03:32;;;;;;;;;28.75;25.00;;;;;4.65;90.89;102369.78;5077349;28;46137;-77
2022/01/11 07:05:57;;;;;;;;;29.75;24.50;;;;;4.64;91.26;102373.31;5077493;28;45621;-76
2022/01/11 07:08:24;;;;;;;;;27.75;24.25;;;;;4.62;90.98;102380.25;5077346;28;45518;-78
2022/01/11 07:10:50;;;;;;;;;35.50;27.75;;;;;4.60;91.20;102384.59;5077089;28;47243;-77
2022/01/11 07:13:16;;;;;;;;;32.50;23.25;;;;;4.58;90.83;102387.25;5077462;28;45703;-78
2022/01/11 07:19:03;;;;;;;;;32.75;28.50;;;;;4.55;90.71;102394.22;5077124;28;45542;-77
2022/01/11 07:21:29;;;;;;;;;22.50;19.00;;;;;4.57;91.26;102397.66;5076644;28;46501;-77
2022/01/11 07:23:56;;;;;;;;;25.50;18.00;;;;;4.49;91.35;102387.38;5076919;28;46977;-77
2022/01/11 07:26:32;;;;;;;;;28.75;23.50;;;;;4.55;91.22;102397.66;5058017;28;46079;-78
2022/01/11 07:28:57;;;;;;;;;34.00;27.00;;;;;4.53;91.29;102398.59;5076029;28;45925;-78
2022/01/11 07:31:22;;;;;;;;;34.00;28.00;;;;;4.49;91.10;102412.47;5076560;28;45699;-78
2022/01/11 07:33:48;;;;;;;;;40.00;29.75;;;;;4.46;91.14;102408.22;5077354;28;46114;-78
2022/01/11 07:36:14;;;;;;;;;34.00;29.00;;;;;4.43;91.05;102416.03;5077012;28;45606;-77
2022/01/11 07:38:40;;;;;;;;;37.50;29.50;;;;;4.40;91.08;102433.41;5077172;28;45679;-77
2022/01/11 07:41:06;;;;;;;;;32.75;27.00;;;;;4.36;90.83;102437.78;5077560;28;45737;-78
2022/01/11 07:43:31;;;;;;;;;31.00;25.75;;;;;4.30;90.64;102437.88;5077433;28;47099;-78
2022/01/11 07:49:20;;;;;;;;;51.25;41.00;;;;;4.26;90.92;102445.75;5076688;28;45828;-78
2022/01/11 07:51:47;;;;;;;;;36.00;31.75;;;;;4.21;90.76;102433.69;5077401;28;46832;-78
2022/01/11 07:54:12;;;;;;;;;28.75;24.50;;;;;4.27;90.91;102440.50;5077171;28;47199;-77
2022/01/11 07:56:38;;;;;;;;;23.25;19.75;;;;;4.26;90.95;102448.34;5075720;28;45596;-77
2022/01/11 07:59:04;;;;;;;;;29.00;24.75;;;;;4.26;90.96;102443.16;5076948;28;45868;-78
2022/01/11 08:04:54;;;;;;;;;32.25;24.25;;;;;4.20;90.54;102433.72;5076279;28;45632;-77
2022/01/11 08:07:20;;;;;;;;;35.75;27.50;;;;;4.30;90.94;102453.44;5076661;28;45918;-77
2022/01/11 08:09:46;;;;;;;;;35.75;31.00;;;;;4.31;90.38;102449.13;5076742;28;45509;-77
2022/01/11 08:12:11;;;;;;;;;35.25;30.00;;;;;4.22;90.99;102438.00;5058095;28;47385;-76
2022/01/11 08:14:37;;;;;;;;;26.25;24.50;;;;;4.33;90.82;102450.78;5076508;28;45482;-77
2022/01/11 08:17:02;;;;;;;;;35.75;31.75;;;;;4.34;90.70;102457.69;5076006;28;45471;-76
2022/01/11 08:19:28;;;;;;;;;32.25;28.25;;;;;4.33;90.89;102457.72;5076862;28;45739;-77
2022/01/11 08:21:55;;;;;;;;;32.00;27.25;;;;;4.27;91.00;102455.22;5076641;28;45578;-77
2022/01/11 08:24:24;;;;;;;;;45.50;29.00;;;;;4.32;90.95;102476.78;5076138;28;47115;-77
2022/01/11 08:26:50;;;;;;;;;35.50;29.00;;;;;4.24;90.92;102466.50;5076574;28;45623;-77
2022/01/11 08:29:18;;;;;;;;;35.50;24.75;;;;;4.28;90.83;102482.88;5076807;28;45719;-76
2022/01/11 08:35:06;;;;;;;;;40.00;31.25;;;;;4.30;90.81;102496.69;5075725;28;46049;-77
2022/01/11 08:37:31;;;;;;;;;42.50;31.50;;;;;4.21;90.89;102482.13;5075680;28;45554;-78
2022/01/11 08:39:57;;;;;;;;;34.75;30.50;;;;;4.25;90.68;102494.16;5076321;28;45878;-76
2022/01/11 08:42:22;;;;;;;;;29.00;26.75;;;;;4.30;90.55;102497.56;5075616;28;46526;-77
2022/01/11 08:44:49;;;;;;;;;36.50;31.00;;;;;4.33;90.88;102496.63;5075773;28;46406;-78
2022/01/11 08:47:19;;;;;;;;;41.25;29.25;;;;;4.33;90.43;102494.91;5075949;28;45664;-77
2022/01/11 08:49:44;;;;;;;;;38.75;30.25;;;;;4.35;90.78;102495.75;5075931;28;45822;-78
2022/01/11 08:52:10;;;;;;;;;39.25;30.25;;;;;4.31;90.50;102480.25;5076368;28;46160;-77
2022/01/11 08:54:36;;;;;;;;;40.00;29.75;;;;;4.38;90.77;102487.03;5076132;28;46165;-77
2022/01/11 08:57:03;;;;;;;;;47.25;32.25;;;;;4.37;90.59;102498.31;5075671;28;45806;-76
2022/01/11 08:59:29;;;;;;;;;31.25;30.00;;;;;4.27;90.82;102470.78;5076316;28;45901;-77
2022/01/11 09:05:18;;;;;;;;;33.00;26.75;;;;;4.30;90.62;102483.72;5075803;28;46092;-77
2022/01/11 09:07:44;;;;;;;;;33.50;28.75;;;;;4.25;90.60;102485.53;5075539;28;45627;-77
2022/01/11 09:10:10;;;;;;;;;36.25;28.50;;;;;4.36;90.65;102502.66;5075673;28;45794;-77
2022/01/11 09:12:36;;;;;;;;;37.00;26.25;;;;;4.38;90.40;102500.00;5075556;28;46616;-78
2022/01/11 09:15:05;;;;;;;;;37.00;30.00;;;;;4.34;90.39;102512.19;5075742;28;46550;-77
2022/01/11 09:17:31;;;;;;;;;38.00;28.75;;;;;4.38;90.62;102513.84;5057304;28;45540;-76
2022/01/11 09:19:57;;;;;;;;;36.75;31.75;;;;;4.41;90.81;102512.97;5057831;28;45592;-76
2022/01/11 09:22:22;;;;;;;;;32.50;26.25;;;;;4.34;90.59;102493.16;5057074;28;47328;-77
2022/01/11 09:24:50;;;;;;;;;40.75;31.00;;;;;4.46;90.67;102504.22;5057389;28;47168;-77
2022/01/11 09:27:16;;;;;;;;;40.25;34.75;;;;;4.50;90.55;102508.47;5075693;28;45802;-76
2022/01/11 09:29:43;;;;;;;;;35.25;25.00;;;;;4.50;90.71;102505.03;5075634;28;45983;-77
2022/01/11 09:35:30;;;;;;;;;32.00;28.00;;;;;4.57;90.40;102522.22;5074809;28;45730;-75
2022/01/11 09:37:55;;;;;;;;;42.25;34.00;;;;;4.60;90.13;102517.84;5075262;28;45619;-75
2022/01/11 09:40:21;;;;;;;;;40.75;33.50;;;;;4.60;90.51;102524.75;5075216;28;45819;-77
2022/01/11 09:42:46;;;;;;;;;36.75;34.25;;;;;4.58;90.46;102527.41;5073674;28;47266;-76
2022/01/11 09:45:12;;;;;;;;;34.50;27.75;;;;;4.57;90.58;102527.41;5073549;28;46202;-78
2022/01/11 09:47:39;;;;;;;;;36.25;29.25;;;;;4.60;90.33;102537.72;5074793;28;45498;-78
2022/01/11 09:50:07;;;;;;;;;43.50;35.75;;;;;4.57;90.52;102520.50;5075266;28;45739;-76
2022/01/11 09:52:34;;;;;;;;;33.75;28.00;;;;;4.59;90.18;102530.81;5075742;28;45494;-78
2022/01/11 09:55:00;;;;;;;;;37.00;32.00;;;;;4.62;90.16;102530.78;5057707;28;46353;-79
2022/01/11 09:57:25;;;;;;;;;40.00;31.75;;;;;4.58;90.23;102527.41;5056788;28;45625;-76
2022/01/11 09:59:51;;;;;;;;;36.00;30.50;;;;;4.56;90.54;102520.50;5075592;28;45974;-77
2022/01/11 10:05:38;;;;;;;;;37.00;29.75;;;;;4.64;90.54;102540.25;5074983;28;45611;-77
2022/01/11 10:08:21;;;;;;;;;41.50;30.75;;;;;4.64;90.33;102545.44;5074904;28;45688;-76
2022/01/11 10:10:48;;;;;;;;;36.00;27.50;;;;;4.62;90.46;102549.81;5075340;28;45736;-77
2022/01/11 10:13:32;;;;;;;;;40.50;32.25;;;;;4.60;90.28;102540.31;5075134;28;46972;-78
2022/01/11 10:15:57;;;;;;;;;37.50;30.25;;;;;4.59;90.55;102543.81;5073603;28;47883;-84
2022/01/11 10:18:37;;;;;;;;;37.00;29.75;;;;;4.52;90.42;102518.84;5075494;28;45747;-76
2022/01/11 10:21:32;;;;;;;;;41.25;33.00;;;;;4.67;90.47;102548.88;5074709;28;45592;-76
2022/01/11 10:23:57;;;;;;;;;50.00;37.00;;;;;4.67;90.02;102551.47;5056484;28;47224;-79
2022/01/11 10:26:43;;;;;;;;;40.50;34.00;;;;;4.71;89.92;102558.34;5074281;28;46467;-78
2022/01/11 10:29:32;;;;;;;;;40.00;31.50;;;;;4.72;90.35;102563.50;5075151;28;46078;-78
2022/01/11 10:32:00;;;;;;;;;39.00;28.50;;;;;4.69;90.18;102552.31;5074446;28;45833;-77
2022/01/11 10:34:30;;;;;;;;;34.00;29.25;;;;;4.75;89.93;102553.06;5075450;28;45603;-86
2022/01/11 10:36:55;;;;;;;;;36.75;32.25;;;;;4.71;90.38;102554.00;5077908;28;46022;-83
2022/01/11 10:39:27;;;;;;;;;33.75;29.00;;;;;4.77;90.03;102572.09;5058574;28;45552;-78
2022/01/11 10:41:52;;;;;;;;;40.25;33.50;;;;;4.75;90.09;102554.84;5075726;28;45775;-78
2022/01/11 10:44:43;;;;;;;;;40.50;33.50;;;;;4.83;90.23;102566.81;5078111;28;46892;-81
2022/01/11 10:47:09;;;;;;;;;37.00;28.75;;;;;4.87;90.09;102571.06;5081083;28;45905;-80
2022/01/11 10:49:35;;;;;;;;;37.00;29.50;;;;;4.88;90.25;102567.59;5080267;28;45673;-81
2022/01/11 10:52:21;;;;;;;;;33.00;28.50;;;;;4.89;89.74;102569.31;5079602;28;45596;-87
2022/01/11 10:54:48;;;;;;;;;37.25;30.50;;;;;4.91;89.89;102577.06;5078627;28;45693;-76
2022/01/11 10:57:19;;;;;;;;;42.25;34.75;;;;;4.91;90.00;102572.72;5061927;28;46431;-78
2022/01/11 11:00:03;;;;;;;;;35.50;29.25;;;;;4.91;90.03;102572.72;5079078;28;45711;-75
2022/01/11 11:02:28;;;;;;;;;37.75;28.75;;;;;4.86;89.92;102545.13;5081241;28;45628;-88
2022/01/11 11:04:55;;;;;;;;;36.25;26.75;;;;;4.94;89.90;102564.88;5082672;28;45711;-83
2022/01/11 11:07:23;;;;;;;;;39.25;29.75;;;;;4.96;90.17;102557.09;5082971;28;46252;-87
2022/01/11 11:09:50;;;;;;;;;38.75;28.75;;;;;4.97;90.05;102564.81;5082718;28;45451;-86
2022/01/11 11:12:21;;;;;;;;;37.25;33.25;;;;;4.87;89.85;102552.88;5083251;28;45833;-87
2022/01/11 11:14:53;;;;;;;;;42.50;37.50;;;;;4.99;90.10;102562.22;5083233;28;45598;-82
2022/01/11 11:17:37;;;;;;;;;38.50;35.25;;;;;4.99;90.05;102570.88;5085568;28;45651;-76
2022/01/11 11:20:07;;;;;;;;;49.00;39.00;;;;;5.04;90.08;102573.38;5087843;28;45807;-80
2022/01/11 11:22:33;;;;;;;;;41.25;35.75;;;;;4.90;89.52;102558.03;5069303;28;45567;-77
2022/01/11 11:25:00;;;;;;;;;42.25;32.75;;;;;5.08;89.91;102575.03;5086710;28;46329;-85
2022/01/11 11:27:28;;;;;;;;;36.25;34.00;;;;;4.94;89.43;102538.06;5082141;28;46433;-75
2022/01/11 11:29:54;;;;;;;;;45.00;35.25;;;;;5.13;89.74;102559.41;5078763;28;45723;-74
2022/01/11 11:32:20;;;;;;;;;42.25;33.75;;;;;5.19;89.59;102556.66;5078828;28;45693;-75
2022/01/11 11:34:49;;;;;;;;;54.50;38.25;;;;;5.22;89.83;102556.63;5079529;28;46694;-79
2022/01/11 11:37:19;;;;;;;;;48.00;36.75;;;;;5.19;89.50;102548.88;5080503;28;46222;-75
2022/01/11 11:39:46;;;;;;;;;42.50;34.00;;;;;5.25;89.56;102559.16;5082206;28;45589;-74
2022/01/11 11:42:17;;;;;;;;;46.75;37.50;;;;;5.28;89.32;102559.13;5082823;28;45565;-75
2022/01/11 11:44:44;;;;;;;;;46.75;40.00;;;;;5.29;89.22;102555.66;5082924;28;46648;-77
2022/01/11 11:47:10;;;;;;;;;40.25;33.25;;;;;5.35;89.21;102555.50;5082507;28;46180;-75
2022/01/11 11:49:53;;;;;;;;;46.25;39.75;;;;;5.33;89.63;102546.91;5079883;28;45615;-74
2022/01/11 11:52:41;;;;;;;;;50.75;36.75;;;;;5.39;89.10;102536.41;5079219;28;45768;-76
2022/01/11 11:55:22;;;;;;;;;40.00;34.25;;;;;5.53;89.48;102551.72;5078882;28;46791;-74
2022/01/11 11:57:54;;;;;;;;;44.00;34.50;;;;;5.59;89.38;102556.81;5077890;28;46251;-84
2022/01/11 12:00:25;;;;;;;;;42.75;34.00;;;;;5.65;89.18;102556.69;5061200;28;45902;-82
2022/01/11 12:02:55;;;;;;;;;44.25;38.25;;;;;5.68;89.47;102544.47;5077761;28;45585;-75
2022/01/11 12:05:39;;;;;;;;;44.75;36.50;;;;;5.72;89.17;102545.31;5078442;28;46317;-83
2022/01/11 12:08:33;;;;;;;;;56.00;40.00;;;;;5.74;89.28;102546.09;5080452;28;46448;-78
2022/01/11 12:11:08;;;;;;;;;41.00;37.75;;;;;5.74;88.90;102536.56;5086025;28;45502;-77
2022/01/11 12:13:43;;;;;;;;;50.75;39.75;;;;;5.75;89.00;102537.44;5086190;28;45488;-80
2022/01/11 12:19:41;;;;;;;;;45.25;35.00;;;;;5.78;88.94;102537.34;5078292;28;46219;-80
2022/01/11 12:22:06;;;;;;;;;49.25;39.25;;;;;5.84;89.21;102532.88;5079891;28;45635;-78
2022/01/11 12:24:40;;;;;;;;;43.50;38.00;;;;;5.79;89.25;102524.31;5080774;28;45565;-83
2022/01/11 12:27:10;;;;;;;;;47.00;38.75;;;;;5.74;89.17;102517.50;5082218;28;46507;-85
2022/01/11 12:29:37;;;;;;;;;48.50;40.50;;;;;5.66;89.25;102509.88;5080430;28;46274;-80
2022/01/11 12:35:24;;;;;;;;;56.00;40.00;;;;;5.80;88.82;102546.00;5088859;28;45495;-87
2022/01/11 12:38:05;;;;;;;;;47.00;39.25;;;;;5.77;89.11;102541.72;5089760;28;46719;-75
2022/01/11 12:40:31;;;;;;;;;45.00;36.75;;;;;5.75;89.13;102538.28;5088950;28;46043;-76
2022/01/11 12:43:00;;;;;;;;;46.25;37.00;;;;;5.75;88.96;102535.69;5082238;28;45510;-76